Time;durP1;ratioP1;P1;durP2;ratioP2;P2;SDS_P1;SDS_P2;PMS_P1;PMS_P2;Temp;Humidity;BMP_temperature;BMP_pressure;BME280_temperature;BME280_humidity;BME280_pressure;Samples;Min_cycle;Max_cycle;Signal;HPM_P1;HPM_P2
2021/11/15 00:00:45;;;;;;;1.20;0.60;;;16.80;61.90;;;;;;5105690;28;20024;-37
2021/11/15 00:03:12;;;;;;;0.60;0.60;;;16.80;62.70;;;;;;5105706;28;20046;-37
2021/11/15 00:05:38;;;;;;;0.85;0.80;;;16.80;62.10;;;;;;5105789;28;20023;-38
2021/11/15 00:08:05;;;;;;;1.17;0.68;;;16.70;61.90;;;;;;5103321;28;20519;-38
2021/11/15 00:10:31;;;;;;;0.60;0.60;;;16.70;62.00;;;;;;5099521;28;20045;-38
2021/11/15 00:12:57;;;;;;;0.77;0.70;;;16.70;61.90;;;;;;5085376;28;20288;-38
2021/11/15 00:15:23;;;;;;;1.13;0.60;;;16.70;62.10;;;;;;5084961;28;20028;-37
2021/11/15 00:17:50;;;;;;;0.65;0.50;;;16.70;62.50;;;;;;5101058;28;20027;-37
2021/11/15 00:20:16;;;;;;;1.48;0.60;;;16.80;62.60;;;;;;5105422;28;20016;-37
2021/11/15 00:22:42;;;;;;;0.70;0.57;;;16.80;62.70;;;;;;5105278;28;20032;-38
2021/11/15 00:25:09;;;;;;;1.10;0.55;;;16.70;62.50;;;;;;5103704;28;20032;-37
2021/11/15 00:27:35;;;;;;;0.40;0.30;;;16.70;62.60;;;;;;5105311;28;20089;-38
2021/11/15 00:30:02;;;;;;;1.27;0.70;;;16.70;62.50;;;;;;5104946;28;20036;-38
2021/11/15 00:32:29;;;;;;;1.27;0.70;;;16.70;62.50;;;;;;5105391;28;20031;-38
2021/11/15 00:34:55;;;;;;;1.00;0.70;;;16.70;62.60;;;;;;5103683;28;20081;-38
2021/11/15 00:37:21;;;;;;;0.85;0.73;;;16.60;62.50;;;;;;5105327;28;20033;-38
2021/11/15 00:39:48;;;;;;;1.08;0.85;;;16.60;62.50;;;;;;5103918;28;20468;-38
2021/11/15 00:42:14;;;;;;;1.25;0.82;;;16.70;63.00;;;;;;5083675;28;20043;-38
2021/11/15 00:44:40;;;;;;;0.73;0.60;;;16.70;63.00;;;;;;5084262;28;20060;-37
2021/11/15 00:47:07;;;;;;;1.25;0.80;;;16.80;63.00;;;;;;5094574;28;20036;-38
2021/11/15 00:49:33;;;;;;;1.45;0.80;;;16.80;63.00;;;;;;5105085;28;20089;-37
2021/11/15 00:51:59;;;;;;;0.83;0.70;;;16.70;62.90;;;;;;5104840;28;20020;-37
2021/11/15 00:54:25;;;;;;;0.77;0.77;;;16.70;62.90;;;;;;5104472;28;20028;-38
2021/11/15 00:56:51;;;;;;;0.60;0.60;;;16.70;62.80;;;;;;5104707;28;20070;-38
2021/11/15 00:59:18;;;;;;;2.45;0.98;;;16.70;62.80;;;;;;5104927;28;20158;-38
2021/11/15 01:01:44;;;;;;;1.70;0.90;;;16.70;62.80;;;;;;5104185;28;20030;-38
2021/11/15 01:04:10;;;;;;;0.82;0.70;;;16.60;62.80;;;;;;5104287;28;20031;-37
2021/11/15 01:06:36;;;;;;;1.23;0.80;;;16.60;62.90;;;;;;5104562;28;20051;-38
2021/11/15 01:09:03;;;;;;;1.52;0.80;;;16.70;63.40;;;;;;5094537;28;20783;-38
2021/11/15 01:11:29;;;;;;;1.45;0.80;;;16.70;63.40;;;;;;5082763;28;20100;-38
2021/11/15 01:13:55;;;;;;;1.40;0.82;;;16.70;63.30;;;;;;5084031;28;20031;-37
2021/11/15 01:16:22;;;;;;;1.17;0.90;;;16.70;63.20;;;;;;5087358;28;20028;-37
2021/11/15 01:18:50;;;;;;;1.23;0.73;;;16.70;63.20;;;;;;5103002;28;20077;-38
2021/11/15 01:21:17;;;;;;;1.08;0.70;;;16.70;63.10;;;;;;5104367;28;20039;-39
2021/11/15 01:23:43;;;;;;;1.17;0.88;;;16.60;63.00;;;;;;5104217;28;20153;-39
2021/11/15 01:26:10;;;;;;;1.23;0.77;;;16.60;63.00;;;;;;5103805;28;20032;-38
2021/11/15 01:28:36;;;;;;;0.90;0.60;;;16.60;63.00;;;;;;5104007;28;20028;-38
2021/11/15 01:31:02;;;;;;;0.90;0.60;;;16.60;63.00;;;;;;5104031;28;20267;-38
2021/11/15 01:33:29;;;;;;;1.15;0.75;;;16.50;63.00;;;;;;5104031;28;20276;-38
2021/11/15 01:35:55;;;;;;;1.13;0.73;;;16.60;63.40;;;;;;5103737;28;20028;-38
2021/11/15 01:38:21;;;;;;;0.93;0.70;;;16.70;63.70;;;;;;5100437;28;20028;-38
2021/11/15 01:40:48;;;;;;;0.95;0.75;;;16.70;63.60;;;;;;5083727;28;20092;-38
2021/11/15 01:43:14;;;;;;;1.60;0.93;;;16.70;63.40;;;;;;5082940;28;20025;-38
2021/11/15 01:45:40;;;;;;;0.85;0.70;;;16.70;63.40;;;;;;5085197;28;20062;-38
2021/11/15 01:48:07;;;;;;;1.25;1.05;;;16.70;63.40;;;;;;5101697;28;20028;-38
2021/11/15 01:50:34;;;;;;;0.80;0.75;;;16.60;63.30;;;;;;5103747;28;20510;-38
2021/11/15 01:53:04;;;;;;;3.33;0.93;;;16.60;63.20;;;;;;5102079;28;20114;-38
2021/11/15 01:55:31;;;;;;;1.05;0.80;;;16.60;63.30;;;;;;5103534;28;20024;-38
2021/11/15 01:57:57;;;;;;;;;;;16.50;63.20;;;;;;5102548;28;20024;-38
2021/11/15 02:00:37;;;;;;;0.80;0.57;;;16.50;63.30;;;;;;5101964;28;19912;-38
2021/11/15 02:03:03;;;;;;;1.00;0.70;;;16.60;63.60;;;;;;5103601;28;20024;-38
2021/11/15 02:05:29;;;;;;;1.40;0.80;;;16.60;63.90;;;;;;5103114;28;20024;-38
2021/11/15 02:07:56;;;;;;;1.00;0.70;;;16.70;63.70;;;;;;5102377;28;20147;-38
2021/11/15 02:10:22;;;;;;;0.98;0.70;;;16.70;63.50;;;;;;5087660;28;20024;-38
2021/11/15 02:12:48;;;;;;;1.40;0.80;;;16.60;63.50;;;;;;5103218;28;20829;-38
2021/11/15 02:15:14;;;;;;;1.40;0.80;;;16.60;63.40;;;;;;5102878;28;20089;-38
2021/11/15 02:17:41;;;;;;;1.20;0.70;;;16.60;63.50;;;;;;5088496;28;20028;-37
2021/11/15 02:20:16;;;;;;;1.30;0.93;;;16.50;63.50;;;;;;5082827;28;20024;-38
2021/11/15 02:22:43;;;;;;;0.60;0.50;;;16.50;63.50;;;;;;5082967;28;20024;-38
2021/11/15 02:25:09;;;;;;;1.33;1.00;;;16.60;64.00;;;;;;5082735;28;20129;-37
2021/11/15 02:27:35;;;;;;;1.13;0.70;;;16.70;64.00;;;;;;5082866;28;20812;-38
2021/11/15 02:30:05;;;;;;;1.02;0.80;;;16.70;63.70;;;;;;5082612;28;20041;-39
2021/11/15 02:32:32;;;;;;;0.93;0.63;;;16.70;63.60;;;;;;5082786;28;20606;-38
2021/11/15 02:34:58;;;;;;;1.80;0.88;;;16.60;63.60;;;;;;5082399;28;20036;-37
2021/11/15 02:37:24;;;;;;;1.20;0.70;;;16.60;63.60;;;;;;5082794;28;20039;-38
2021/11/15 02:39:51;;;;;;;1.08;0.80;;;16.50;63.60;;;;;;5098427;28;20070;-38
2021/11/15 02:42:17;;;;;;;2.35;0.80;;;16.50;63.60;;;;;;5102858;28;20032;-38
2021/11/15 02:44:43;;;;;;;1.08;0.82;;;16.50;63.80;;;;;;5102562;28;20035;-38
2021/11/15 02:47:09;;;;;;;1.58;0.65;;;16.60;64.10;;;;;;5102398;28;20044;-38
2021/11/15 02:49:35;;;;;;;1.30;0.73;;;16.70;64.20;;;;;;5102722;28;20040;-38
2021/11/15 02:52:02;;;;;;;1.30;0.80;;;16.70;63.90;;;;;;5102267;28;20176;-38
2021/11/15 02:54:28;;;;;;;1.30;0.70;;;16.70;63.70;;;;;;5102618;28;20054;-38
2021/11/15 02:56:54;;;;;;;1.38;0.70;;;16.60;63.80;;;;;;5102658;28;20100;-38
2021/11/15 02:59:20;;;;;;;1.10;0.80;;;16.60;63.80;;;;;;5102569;28;20088;-38
2021/11/15 03:01:47;;;;;;;1.70;0.70;;;16.60;63.80;;;;;;5102491;28;20036;-38
2021/11/15 03:04:14;;;;;;;1.55;0.90;;;16.50;63.80;;;;;;5102679;28;20020;-38
2021/11/15 03:06:40;;;;;;;1.17;0.75;;;16.50;63.80;;;;;;5105665;28;20164;-38
2021/11/15 03:09:07;;;;;;;0.70;0.47;;;16.60;64.30;;;;;;5095887;28;20044;-38
2021/11/15 03:11:33;;;;;;;0.80;0.60;;;16.70;64.40;;;;;;5101173;28;20031;-38
2021/11/15 03:13:59;;;;;;;1.40;0.80;;;16.70;64.00;;;;;;5106645;28;20051;-38
2021/11/15 03:16:25;;;;;;;1.20;0.75;;;16.70;63.90;;;;;;5106248;28;20023;-38
2021/11/15 03:18:51;;;;;;;1.38;0.68;;;16.60;63.80;;;;;;5106681;28;20031;-38
2021/11/15 03:21:20;;;;;;;0.90;0.70;;;16.60;63.90;;;;;;5106619;28;20055;-38
2021/11/15 03:23:48;;;;;;;0.98;0.80;;;16.50;63.80;;;;;;5106516;28;20028;-38
2021/11/15 03:26:14;;;;;;;1.25;0.60;;;16.50;63.80;;;;;;5106090;28;20028;-38
2021/11/15 03:28:49;;;;;;;0.88;0.75;;;16.50;64.10;;;;;;5106318;28;20718;-39
2021/11/15 03:31:20;;;;;;;0.85;0.52;;;16.60;64.40;;;;;;5106106;28;20028;-38
2021/11/15 03:33:47;;;;;;;0.90;0.77;;;16.70;64.20;;;;;;5105961;28;20541;-38
2021/11/15 03:36:14;;;;;;;1.15;0.55;;;16.70;64.10;;;;;;5106082;28;20025;-38
2021/11/15 03:38:40;;;;;;;1.92;0.90;;;16.60;63.90;;;;;;5096101;28;20441;-38
2021/11/15 03:41:07;;;;;;;1.10;0.70;;;16.60;64.00;;;;;;5084303;28;20033;-38
2021/11/15 03:43:33;;;;;;;0.95;0.77;;;16.60;63.90;;;;;;5084380;28;20026;-38
2021/11/15 03:45:59;;;;;;;0.77;0.60;;;16.50;64.00;;;;;;5085877;28;20123;-38
2021/11/15 03:48:25;;;;;;;1.13;0.80;;;16.50;64.00;;;;;;5105903;28;20028;-38
2021/11/15 03:50:55;;;;;;;1.08;0.60;;;16.60;64.40;;;;;;5105862;28;20028;-38
2021/11/15 03:53:23;;;;;;;1.13;0.80;;;16.60;64.40;;;;;;5106019;28;20032;-38
2021/11/15 03:55:49;;;;;;;0.90;0.50;;;16.70;64.20;;;;;;5105799;28;20032;-38
2021/11/15 03:58:15;;;;;;;0.70;0.60;;;16.70;64.00;;;;;;5104281;28;20035;-38
2021/11/15 04:00:42;;;;;;;1.23;0.80;;;16.60;64.00;;;;;;5105558;28;20028;-42
2021/11/15 04:03:18;;;;;;;1.10;0.70;;;16.60;64.00;;;;;;5105789;28;20084;-38
2021/11/15 04:05:49;;;;;;;1.17;0.80;;;16.50;64.00;;;;;;5105663;28;20088;-38
2021/11/15 04:08:16;;;;;;;0.93;0.57;;;16.50;64.00;;;;;;5101551;28;20074;-38
2021/11/15 04:10:42;;;;;;;0.82;0.65;;;16.50;64.10;;;;;;5108123;28;20117;-38
2021/11/15 04:13:17;;;;;;;1.45;0.80;;;16.60;64.40;;;;;;5105543;28;20024;-39
2021/11/15 04:15:44;;;;;;;0.73;0.52;;;16.60;64.40;;;;;;5105078;28;20042;-38
2021/11/15 04:18:11;;;;;;;0.70;0.60;;;16.70;64.30;;;;;;5105097;28;20066;-38
2021/11/15 04:20:38;;;;;;;0.73;0.60;;;16.70;64.20;;;;;;5105370;28;20419;-38
2021/11/15 04:23:04;;;;;;;1.00;0.70;;;16.60;64.00;;;;;;5105369;28;20059;-38
2021/11/15 04:25:30;;;;;;;0.90;0.60;;;16.60;64.10;;;;;;5103774;28;20024;-38
2021/11/15 04:27:56;;;;;;;1.02;0.82;;;16.60;64.10;;;;;;5105103;28;20027;-38
2021/11/15 04:30:22;;;;;;;1.13;0.57;;;16.50;64.10;;;;;;5103605;28;20511;-38
2021/11/15 04:32:48;;;;;;;0.98;0.63;;;16.50;64.20;;;;;;5105226;28;20020;-38
2021/11/15 04:35:18;;;;;;;1.17;0.60;;;16.60;64.60;;;;;;5105217;28;20115;-38
2021/11/15 04:37:45;;;;;;;1.15;0.68;;;16.70;64.50;;;;;;5104694;28;20636;-38
2021/11/15 04:40:12;;;;;;;1.13;0.73;;;16.70;64.30;;;;;;5084474;28;20036;-38
2021/11/15 04:42:38;;;;;;;0.90;0.73;;;16.70;64.20;;;;;;5084649;28;20028;-38
2021/11/15 04:45:05;;;;;;;1.17;0.70;;;16.60;64.10;;;;;;5084644;28;20059;-38
2021/11/15 04:47:31;;;;;;;0.93;0.82;;;16.60;64.10;;;;;;5097667;28;20028;-38
2021/11/15 04:49:57;;;;;;;1.05;0.73;;;16.50;64.10;;;;;;5104768;28;20594;-38
2021/11/15 04:52:23;;;;;;;1.27;0.80;;;16.50;64.10;;;;;;5104934;28;20034;-38
2021/11/15 04:54:49;;;;;;;0.85;0.65;;;16.50;64.30;;;;;;5104772;28;20043;-38
2021/11/15 04:57:17;;;;;;;2.45;0.77;;;16.60;64.60;;;;;;5104390;28;20682;-38
2021/11/15 04:59:43;;;;;;;1.00;0.80;;;16.70;64.70;;;;;;5104693;28;20051;-38
2021/11/15 05:02:09;;;;;;;1.05;0.80;;;16.70;64.40;;;;;;5104388;28;20021;-37
2021/11/15 05:04:36;;;;;;;0.80;0.80;;;16.70;64.20;;;;;;5104622;28;20028;-38
2021/11/15 05:07:02;;;;;;;1.15;0.80;;;16.60;64.10;;;;;;5104423;28;20036;-38
2021/11/15 05:09:28;;;;;;;1.05;0.90;;;16.60;64.20;;;;;;5090349;28;20028;-38
2021/11/15 05:11:54;;;;;;;1.20;0.80;;;16.50;64.20;;;;;;5084118;28;20556;-38
2021/11/15 05:14:20;;;;;;;0.80;0.50;;;16.50;64.20;;;;;;5092508;28;20028;-38
2021/11/15 05:16:48;;;;;;;0.90;0.60;;;16.50;64.40;;;;;;5104138;28;20074;-37
2021/11/15 05:19:14;;;;;;;0.68;0.65;;;16.60;64.70;;;;;;5104001;28;20023;-38
2021/11/15 05:21:40;;;;;;;0.93;0.70;;;16.70;64.50;;;;;;5104183;28;20107;-38
2021/11/15 05:24:06;;;;;;;1.17;0.80;;;16.70;64.30;;;;;;5103938;28;20028;-38
2021/11/15 05:26:33;;;;;;;0.60;0.60;;;16.60;64.10;;;;;;5104155;28;20031;-38
2021/11/15 05:28:59;;;;;;;0.65;0.60;;;16.60;64.10;;;;;;5102899;28;20031;-38
2021/11/15 05:31:26;;;;;;;0.93;0.70;;;16.50;64.20;;;;;;5103847;28;20063;-38
2021/11/15 05:33:52;;;;;;;0.93;0.70;;;16.50;64.20;;;;;;5104007;28;20024;-38
2021/11/15 05:36:18;;;;;;;0.73;0.70;;;16.50;64.10;;;;;;5103726;28;20025;-38
2021/11/15 05:38:44;;;;;;;0.73;0.70;;;16.50;64.40;;;;;;5096831;28;20846;-38
2021/11/15 05:41:10;;;;;;;0.90;0.57;;;16.60;64.60;;;;;;5083917;28;20020;-38
2021/11/15 05:43:36;;;;;;;1.33;0.68;;;16.70;64.40;;;;;;5101153;28;20085;-38
2021/11/15 05:46:02;;;;;;;0.82;0.70;;;16.70;64.30;;;;;;5103533;28;20027;-38
2021/11/15 05:48:29;;;;;;;0.60;0.52;;;16.60;64.10;;;;;;5103276;28;20028;-38
2021/11/15 05:50:55;;;;;;;1.88;0.82;;;16.60;64.10;;;;;;5103699;28;20028;-38
2021/11/15 05:53:21;;;;;;;0.90;0.65;;;16.50;64.20;;;;;;5103578;28;20039;-38
2021/11/15 05:55:47;;;;;;;1.00;0.80;;;16.50;64.20;;;;;;5103612;28;20027;-38
2021/11/15 05:58:13;;;;;;;0.93;0.70;;;16.50;64.20;;;;;;5103606;28;20091;-38
2021/11/15 06:00:39;;;;;;;1.60;0.93;;;16.50;64.40;;;;;;5102990;28;20024;-38
2021/11/15 06:03:06;;;;;;;1.00;0.70;;;16.60;64.60;;;;;;5103506;28;20042;-38
2021/11/15 06:05:32;;;;;;;0.90;0.70;;;16.60;64.50;;;;;;5101886;28;20038;-38
2021/11/15 06:07:58;;;;;;;0.93;0.77;;;16.60;64.20;;;;;;5102293;28;20059;-38
2021/11/15 06:10:24;;;;;;;1.13;0.73;;;16.60;64.20;;;;;;5082542;28;20044;-39
2021/11/15 06:12:50;;;;;;;1.30;0.90;;;16.50;64.20;;;;;;5083103;28;20025;-38
2021/11/15 06:15:17;;;;;;;1.23;0.90;;;16.50;64.20;;;;;;5081566;28;20142;-38
2021/11/15 06:17:44;;;;;;;1.00;0.70;;;16.50;64.20;;;;;;5097816;28;20039;-38
2021/11/15 06:20:11;;;;;;;1.30;0.90;;;16.50;64.50;;;;;;5102898;28;20035;-38
2021/11/15 06:22:37;;;;;;;0.80;0.55;;;16.60;64.70;;;;;;5103073;28;20039;-38
2021/11/15 06:25:05;;;;;;;1.25;0.70;;;16.70;64.60;;;;;;5103115;28;20048;-38
2021/11/15 06:27:31;;;;;;;1.38;0.73;;;16.70;64.40;;;;;;5102876;28;20024;-38
2021/11/15 06:29:57;;;;;;;1.35;0.90;;;16.60;64.20;;;;;;5102789;28;20047;-38
2021/11/15 06:32:24;;;;;;;1.17;0.70;;;16.60;64.30;;;;;;5101275;28;20089;-38
2021/11/15 06:34:50;;;;;;;1.17;0.98;;;16.50;64.30;;;;;;5101526;28;20091;-38
2021/11/15 06:37:16;;;;;;;1.25;0.88;;;16.50;64.40;;;;;;5102840;28;20111;-38
2021/11/15 06:39:43;;;;;;;0.73;0.70;;;16.50;64.50;;;;;;5086077;28;20025;-38
2021/11/15 06:42:09;;;;;;;0.80;0.70;;;16.60;64.70;;;;;;5102205;28;20032;-38
2021/11/15 06:44:35;;;;;;;1.00;0.80;;;16.60;64.70;;;;;;5103009;28;20107;-38
2021/11/15 06:47:02;;;;;;;0.70;0.57;;;16.70;64.60;;;;;;5093455;28;20024;-38
2021/11/15 06:49:28;;;;;;;1.40;0.82;;;16.70;64.50;;;;;;5082217;28;20436;-38
2021/11/15 06:51:54;;;;;;;1.17;0.80;;;16.60;64.30;;;;;;5082445;28;20032;-38
2021/11/15 06:54:21;;;;;;;1.17;0.80;;;16.60;64.40;;;;;;5081104;28;20024;-38
2021/11/15 06:56:47;;;;;;;1.60;1.10;;;16.50;64.40;;;;;;5082603;28;20123;-38
2021/11/15 06:59:14;;;;;;;1.40;0.90;;;16.50;64.40;;;;;;5082110;28;20047;-38
2021/11/15 07:01:40;;;;;;;0.80;0.65;;;16.50;64.60;;;;;;5095343;28;20035;-38
2021/11/15 07:04:08;;;;;;;0.90;0.68;;;16.60;64.80;;;;;;5102663;28;20028;-38
2021/11/15 07:06:35;;;;;;;1.30;0.80;;;16.60;64.60;;;;;;5101905;28;20040;-38
2021/11/15 07:09:03;;;;;;;1.52;0.80;;;16.60;64.50;;;;;;5102079;28;20092;-38
2021/11/15 07:11:30;;;;;;;0.95;0.80;;;16.60;64.40;;;;;;5088170;28;20032;-38
2021/11/15 07:13:56;;;;;;;1.00;0.90;;;16.50;64.50;;;;;;5082314;28;20692;-38
2021/11/15 07:16:23;;;;;;;1.00;0.80;;;16.50;64.50;;;;;;5085826;28;20032;-38
2021/11/15 07:18:52;;;;;;;1.23;0.80;;;16.50;64.40;;;;;;5102530;28;20202;-38
2021/11/15 07:21:21;;;;;;;1.15;0.77;;;16.50;64.70;;;;;;5102194;28;20037;-38
2021/11/15 07:23:48;;;;;;;1.50;0.90;;;16.60;64.90;;;;;;5102559;28;20039;-38
2021/11/15 07:26:15;;;;;;;1.55;0.80;;;16.70;64.80;;;;;;5102433;28;20051;-38
2021/11/15 07:28:42;;;;;;;1.00;0.80;;;16.70;64.50;;;;;;5102356;28;20660;-38
2021/11/15 07:31:09;;;;;;;1.17;0.80;;;16.60;64.40;;;;;;5101828;28;20107;-38
2021/11/15 07:33:35;;;;;;;1.63;0.90;;;16.60;64.60;;;;;;5102265;28;20024;-38
2021/11/15 07:36:01;;;;;;;0.73;0.60;;;16.50;64.60;;;;;;5102356;28;20083;-38
2021/11/15 07:38:28;;;;;;;0.80;0.60;;;16.50;64.50;;;;;;5100916;28;20024;-38
2021/11/15 07:40:54;;;;;;;1.23;0.90;;;16.50;64.80;;;;;;5092966;28;20036;-38
2021/11/15 07:43:21;;;;;;;1.00;0.75;;;16.60;64.90;;;;;;5090195;28;20020;-38
2021/11/15 07:45:47;;;;;;;0.90;0.70;;;16.70;64.80;;;;;;5102110;28;20030;-38
2021/11/15 07:48:13;;;;;;;0.70;0.60;;;16.70;64.60;;;;;;5097506;28;20048;-38
2021/11/15 07:50:39;;;;;;;0.88;0.70;;;16.60;64.50;;;;;;5081752;28;20068;-38
2021/11/15 07:53:06;;;;;;;1.00;0.80;;;16.60;64.60;;;;;;5085599;28;20137;-38
2021/11/15 07:55:32;;;;;;;1.13;0.90;;;16.50;64.60;;;;;;5067660;28;20060;-37
2021/11/15 07:58:01;;;;;;;1.33;0.70;;;16.50;64.60;;;;;;5085304;28;20055;-38
2021/11/15 08:00:27;;;;;;;1.00;0.70;;;16.50;64.70;;;;;;5085252;28;20054;-37
2021/11/15 08:02:53;;;;;;;1.33;1.00;;;16.60;65.00;;;;;;5085146;28;20036;-38
2021/11/15 08:05:20;;;;;;;1.13;0.90;;;16.70;65.00;;;;;;5085394;28;20040;-37
2021/11/15 08:07:46;;;;;;;1.05;0.65;;;16.70;64.70;;;;;;5085358;28;20041;-38
2021/11/15 08:10:13;;;;;;;1.13;0.80;;;16.70;64.60;;;;;;5101076;28;20036;-38
2021/11/15 08:12:41;;;;;;;2.03;0.70;;;16.60;64.60;;;;;;5085398;28;20059;-37
2021/11/15 08:15:09;;;;;;;1.30;0.90;;;16.60;65.30;;;;;;5085254;28;20024;-37
2021/11/15 08:17:39;;;;;;;1.05;0.80;;;16.50;64.60;;;;;;5098675;28;20049;-38
2021/11/15 08:20:07;;;;;;;1.35;0.80;;;16.50;64.60;;;;;;5105470;28;20399;-37
2021/11/15 08:22:33;;;;;;;0.70;0.70;;;16.50;64.70;;;;;;5105193;28;20032;-37
2021/11/15 08:24:59;;;;;;;0.70;0.60;;;16.60;65.00;;;;;;5105322;28;20546;-38
2021/11/15 08:27:26;;;;;;;0.73;0.60;;;16.60;64.80;;;;;;5105158;28;20039;-38
2021/11/15 08:29:52;;;;;;;1.02;0.70;;;16.60;64.60;;;;;;5105085;28;20432;-37
2021/11/15 08:32:24;;;;;;;0.88;0.60;;;16.60;64.50;;;;;;5103486;28;20028;-38
2021/11/15 08:34:51;;;;;;;1.67;1.00;;;16.50;64.50;;;;;;5103744;28;20063;-37
2021/11/15 08:37:17;;;;;;;1.00;0.75;;;16.50;64.60;;;;;;5103785;28;20016;-38
2021/11/15 08:39:43;;;;;;;0.77;0.63;;;16.50;64.60;;;;;;5086062;28;20042;-41
2021/11/15 08:42:10;;;;;;;2.55;0.70;;;16.50;64.80;;;;;;5084943;28;20056;-42
2021/11/15 08:44:40;;;;;;;1.27;0.68;;;16.60;65.00;;;;;;5084727;28;20035;-38
2021/11/15 08:47:07;;;;;;;1.02;0.63;;;16.70;64.70;;;;;;5094207;28;20025;-37
2021/11/15 08:49:33;;;;;;;0.70;0.70;;;16.60;64.60;;;;;;5104754;28;20036;-37
2021/11/15 08:52:00;;;;;;;1.58;0.70;;;16.60;64.60;;;;;;5104654;28;20136;-37
2021/11/15 08:54:26;;;;;;;1.00;0.70;;;16.50;64.60;;;;;;5103351;28;20595;-37
2021/11/15 08:57:00;;;;;;;1.08;0.77;;;16.50;64.60;;;;;;5104635;28;20100;-37
2021/11/15 08:59:27;;;;;;;1.05;0.90;;;16.50;64.80;;;;;;5104618;28;20475;-37
2021/11/15 09:01:53;;;;;;;0.80;0.80;;;16.60;65.10;;;;;;5104216;28;20488;-38
2021/11/15 09:04:19;;;;;;;0.77;0.60;;;16.60;64.90;;;;;;5103633;28;20032;-38
2021/11/15 09:06:46;;;;;;;1.05;0.60;;;16.70;64.80;;;;;;5104207;28;20040;-37
2021/11/15 09:09:16;;;;;;;1.13;0.77;;;16.60;64.60;;;;;;5092869;28;20065;-37
2021/11/15 09:11:44;;;;;;;1.65;0.80;;;16.60;64.60;;;;;;5103987;28;20024;-37
2021/11/15 09:14:11;;;;;;;1.10;0.80;;;16.50;64.70;;;;;;5104429;28;20032;-37
2021/11/15 09:16:37;;;;;;;1.10;0.80;;;16.50;64.70;;;;;;5098416;28;20033;-38
2021/11/15 09:19:03;;;;;;;0.60;0.60;;;16.50;64.80;;;;;;5083944;28;20052;-37
2021/11/15 09:21:29;;;;;;;1.45;0.60;;;16.60;65.10;;;;;;5083736;28;20091;-37
2021/11/15 09:23:55;;;;;;;2.08;0.77;;;16.70;65.00;;;;;;5083791;28;20020;-38
2021/11/15 09:26:26;;;;;;;0.82;0.63;;;16.70;64.80;;;;;;5083733;28;20056;-38
2021/11/15 09:28:53;;;;;;;2.00;0.75;;;16.60;64.60;;;;;;5083572;28;20080;-37
2021/11/15 09:31:19;;;;;;;;;;;16.60;64.70;;;;;;5083844;28;20029;-37
2021/11/15 09:33:45;;;;;;;1.67;0.80;;;16.50;64.70;;;;;;5082125;28;19915;-38
2021/11/15 09:36:12;;;;;;;0.95;0.82;;;16.50;64.70;;;;;;5083589;28;20052;-37
2021/11/15 09:38:39;;;;;;;0.93;0.75;;;16.40;64.70;;;;;;5083579;28;20028;-37
2021/11/15 09:41:07;;;;;;;0.77;0.68;;;16.50;65.10;;;;;;5094403;28;20032;-37
2021/11/15 09:43:34;;;;;;;;;;;16.60;65.10;;;;;;5095296;28;20025;-37
2021/11/15 09:46:11;;;;;;;1.33;0.60;;;16.70;65.00;;;;;;5083780;28;19930;-37
2021/11/15 09:48:39;;;;;;;1.00;0.80;;;16.60;64.70;;;;;;5103468;28;20032;-37
2021/11/15 09:51:06;;;;;;;0.73;0.65;;;16.60;64.70;;;;;;5103552;28;20085;-37
2021/11/15 09:53:32;;;;;;;0.88;0.52;;;16.50;64.70;;;;;;5103377;28;20024;-38
2021/11/15 09:55:58;;;;;;;0.55;0.52;;;16.50;64.80;;;;;;5103400;28;20059;-38
2021/11/15 09:58:25;;;;;;;0.50;0.50;;;16.50;65.00;;;;;;5103554;28;20103;-38
2021/11/15 10:00:51;;;;;;;1.00;0.73;;;16.60;65.20;;;;;;5103401;28;20088;-37
2021/11/15 10:03:18;;;;;;;0.93;0.47;;;16.60;64.80;;;;;;5102901;28;20036;-38
2021/11/15 10:05:44;;;;;;;0.77;0.67;;;16.70;64.70;;;;;;5101967;28;20122;-37
2021/11/15 10:08:12;;;;;;;1.10;0.80;;;16.60;64.60;;;;;;5101439;28;20292;-38
2021/11/15 10:10:40;;;;;;;0.60;0.60;;;16.60;65.30;;;;;;5103213;28;20769;-37
2021/11/15 10:13:21;;;;;;;1.23;0.70;;;16.50;64.60;;;;;;5102807;28;20036;-37
2021/11/15 10:16:06;;;;;;;0.75;0.65;;;16.50;64.70;;;;;;5102918;28;20500;-37
2021/11/15 10:18:50;;;;;;;0.82;0.60;;;16.50;64.90;;;;;;5082457;28;20043;-37
2021/11/15 10:21:23;;;;;;;1.05;0.73;;;16.60;65.10;;;;;;5082841;28;20032;-37
2021/11/15 10:24:00;;;;;;;0.73;0.60;;;16.60;64.80;;;;;;5082456;28;20024;-38
2021/11/15 10:26:39;;;;;;;0.95;0.70;;;16.60;64.60;;;;;;5082546;28;20054;-38
2021/11/15 10:29:11;;;;;;;0.60;0.60;;;16.60;64.60;;;;;;5082390;28;20036;-37
2021/11/15 10:31:47;;;;;;;1.17;0.57;;;16.50;64.60;;;;;;5082295;28;20047;-38
2021/11/15 10:34:22;;;;;;;0.90;0.70;;;16.50;64.70;;;;;;5080902;28;20067;-37
2021/11/15 10:37:03;;;;;;;0.90;0.60;;;16.50;64.80;;;;;;5082489;28;20017;-37
2021/11/15 10:39:33;;;;;;;0.85;0.70;;;16.60;64.90;;;;;;5082458;28;20058;-38
2021/11/15 10:42:19;;;;;;;0.68;0.68;;;16.70;64.80;;;;;;5100487;28;20032;-38
2021/11/15 10:44:50;;;;;;;0.60;0.60;;;16.60;64.50;;;;;;5102634;28;20035;-37
2021/11/15 10:47:17;;;;;;;0.80;0.60;;;16.60;64.50;;;;;;5091231;28;20013;-38
2021/11/15 10:49:43;;;;;;;;;;;16.50;64.50;;;;;;5082695;28;20029;-41
2021/11/15 10:52:14;;;;;;;0.60;0.60;;;16.50;64.60;;;;;;5082250;28;19916;-37
2021/11/15 10:54:53;;;;;;;0.63;0.52;;;16.50;64.70;;;;;;5082067;28;20028;-37
2021/11/15 10:57:21;;;;;;;0.98;0.60;;;16.60;64.90;;;;;;5082152;28;20024;-38
2021/11/15 11:00:15;;;;;;;1.98;0.70;;;16.60;64.90;;;;;;5082116;28;20035;-38
2021/11/15 11:02:49;;;;;;;0.55;0.52;;;16.60;64.60;;;;;;5079122;28;20119;-38
2021/11/15 11:05:25;;;;;;;1.42;0.60;;;16.60;64.50;;;;;;5080924;28;20020;-37
2021/11/15 11:08:20;;;;;;;0.60;0.55;;;16.50;64.50;;;;;;5082000;28;20560;-37
2021/11/15 11:10:54;;;;;;;0.82;0.60;;;16.50;64.60;;;;;;5090046;28;20078;-37
2021/11/15 11:13:23;;;;;;;0.70;0.57;;;16.50;64.80;;;;;;5102019;28;20032;-37
2021/11/15 11:15:52;;;;;;;0.70;0.60;;;16.50;64.90;;;;;;5102212;28;20020;-37
2021/11/15 11:18:43;;;;;;;0.80;0.68;;;16.70;64.90;;;;;;5101970;28;20028;-37
2021/11/15 11:21:43;;;;;;;0.50;0.50;;;16.70;64.50;;;;;;5100858;28;20032;-37
2021/11/15 11:26:35;;;;;;;1.00;0.70;;;16.60;64.50;;;;;;5102467;28;20028;-37
2021/11/15 11:29:03;;;;;;;0.60;0.60;;;16.50;64.60;;;;;;5106086;28;20055;-37
2021/11/15 11:31:31;;;;;;;1.10;0.82;;;16.50;64.60;;;;;;5105947;28;20039;-38
2021/11/15 11:33:58;;;;;;;0.60;0.60;;;16.50;64.80;;;;;;5105601;28;20032;-38
2021/11/15 11:36:24;;;;;;;0.70;0.60;;;16.60;64.90;;;;;;5102841;28;20028;-37
2021/11/15 11:38:50;;;;;;;0.73;0.70;;;16.70;64.60;;;;;;5096882;28;20021;-38
2021/11/15 11:41:17;;;;;;;0.90;0.60;;;16.60;64.50;;;;;;5097805;28;20039;-37
2021/11/15 11:43:44;;;;;;;1.20;0.80;;;16.60;64.50;;;;;;5104241;28;20023;-37
2021/11/15 11:46:14;;;;;;;0.85;0.60;;;16.50;64.60;;;;;;5103628;28;20267;-37
2021/11/15 11:48:40;;;;;;;1.10;0.70;;;16.50;64.60;;;;;;5099665;28;20376;-38
2021/11/15 11:51:06;;;;;;;1.40;0.65;;;16.50;64.80;;;;;;5105726;28;20040;-38
2021/11/15 11:53:34;;;;;;;0.50;0.43;;;16.60;64.80;;;;;;5105503;28;20055;-37
2021/11/15 11:56:12;;;;;;;0.60;0.57;;;16.60;64.80;;;;;;5105482;28;20062;-38
2021/11/15 11:58:39;;;;;;;0.80;0.52;;;16.70;64.60;;;;;;5104230;28;20046;-37
2021/11/15 12:01:14;;;;;;;;;;;16.60;64.50;;;;;;5106011;28;20052;-38
2021/11/15 12:03:41;;;;;;;0.60;0.40;;;16.60;64.60;;;;;;5105002;28;19915;-37
2021/11/15 12:06:43;;;;;;;0.80;0.70;;;16.50;64.60;;;;;;5104263;28;20031;-37
2021/11/15 12:09:09;;;;;;;0.98;0.60;;;16.50;64.70;;;;;;5091325;28;20059;-37
2021/11/15 12:11:37;;;;;;;0.82;0.50;;;16.60;64.90;;;;;;5082234;28;20052;-38
2021/11/15 12:14:05;;;;;;;0.93;0.60;;;16.60;64.80;;;;;;5081712;28;20088;-37
2021/11/15 12:16:53;;;;;;;0.50;0.50;;;16.70;64.60;;;;;;5065385;28;20040;-37
2021/11/15 12:19:26;;;;;;;0.60;0.60;;;16.60;64.50;;;;;;5082200;28;20058;-37
2021/11/15 12:22:08;;;;;;;0.85;0.57;;;16.60;64.60;;;;;;5066299;28;20120;-37
2021/11/15 12:24:34;;;;;;;0.60;0.60;;;16.50;64.60;;;;;;5064836;28;20043;-38
2021/11/15 12:27:01;;;;;;;0.88;0.55;;;16.50;64.60;;;;;;5065252;28;20036;-37
2021/11/15 12:29:31;;;;;;;0.70;0.57;;;16.50;64.70;;;;;;5081654;28;20113;-38
2021/11/15 12:32:02;;;;;;;0.60;0.52;;;16.60;64.60;;;;;;5081724;28;20291;-38
2021/11/15 12:34:30;;;;;;;0.93;0.50;;;16.70;64.60;;;;;;5081727;28;20029;-37
2021/11/15 12:36:57;;;;;;;0.57;0.50;;;16.60;64.40;;;;;;5081788;28;20033;-37
2021/11/15 12:39:27;;;;;;;0.63;0.50;;;16.60;64.50;;;;;;5064840;28;20087;-37
2021/11/15 12:41:55;;;;;;;0.50;0.50;;;16.50;64.50;;;;;;5081738;28;20062;-37
2021/11/15 12:44:25;;;;;;;0.45;0.40;;;16.50;64.50;;;;;;5104610;28;20512;-38
2021/11/15 12:47:03;;;;;;;0.70;0.50;;;16.50;64.60;;;;;;5096859;28;20048;-37
2021/11/15 12:49:36;;;;;;;0.45;0.43;;;16.60;64.70;;;;;;5084240;28;20040;-37
2021/11/15 12:52:09;;;;;;;0.90;0.68;;;16.70;64.60;;;;;;5084278;28;20042;-38
2021/11/15 12:54:47;;;;;;;1.48;0.60;;;16.60;64.40;;;;;;5084083;28;20021;-37